KSLO/SLO METAR and TAF weather

Enter ICAO airport designator
Station Type Date Time Source
KSLO METAR 2022/01/28 00:15 UTC NOAA

KSLO 280015Z AUTO 27005KT 10SM OVC028 02/M02 A3023 RMK AO2 T00231016


Station Type Date Time Source
KSLO Decoded METAR 2022/01/28 00:15 UTC NOAA

Salem, Salem-Leckrone Airport, IL, United States (KSLO) 38-38-34N 088-57-51W 174M
Jan 27, 2022 - 07:15 PM EST / 2022.01.28 0015 UTC
Wind: from the W (270 degrees) at 6 MPH (5 KT):0
Visibility: 10 mile(s):0
Sky conditions: overcast
Temperature: 36.1 F (2.3 C)
Dew Point: 29.1 F (-1.6 C)
Relative Humidity: 75%
Pressure (altimeter): 30.23 in. Hg (1023 hPa)
ob: KSLO 280015Z AUTO 27005KT 10SM OVC028 02/M02 A3023 RMK AO2 T00231016
cycle: 0

Station Type Date Time Source
KSLO TAF UTC NOAA

Error!

Example: see airport list